createdAt,value
2019-03-16T00:00:16.916Z,99.60
2019-03-16T00:01:23.092Z,99.60
2019-03-16T00:02:27.697Z,99.70
2019-03-16T00:03:32.268Z,99.90
2019-03-16T00:04:36.859Z,99.80
2019-03-16T00:05:41.477Z,99.80
2019-03-16T00:06:46.033Z,99.80
2019-03-16T00:07:50.610Z,99.80
2019-03-16T00:08:55.191Z,99.80
2019-03-16T00:09:59.872Z,99.90
2019-03-16T00:11:04.691Z,99.90
2019-03-16T00:12:09.307Z,99.90
2019-03-16T00:13:16.120Z,99.90
2019-03-16T00:14:20.138Z,99.90
2019-03-16T00:15:24.717Z,99.90
2019-03-16T00:16:29.292Z,99.90
2019-03-16T00:17:33.900Z,99.90
2019-03-16T00:18:38.459Z,99.90
2019-03-16T00:19:43.004Z,99.90
2019-03-16T00:20:47.603Z,99.90
2019-03-16T00:21:52.181Z,99.90
2019-03-16T00:22:56.767Z,99.90
2019-03-16T00:24:01.648Z,99.90
2019-03-16T00:25:06.334Z,99.90
2019-03-16T00:26:10.928Z,99.90
2019-03-16T00:27:15.487Z,99.90
2019-03-16T00:28:20.064Z,99.90
2019-03-16T00:29:24.617Z,99.80
2019-03-16T00:30:29.218Z,99.80
2019-03-16T00:31:33.798Z,99.90
2019-03-16T00:32:38.490Z,99.90
2019-03-16T00:33:43.115Z,99.90
2019-03-16T00:34:47.716Z,99.90
2019-03-16T00:35:52.376Z,99.90
2019-03-16T00:36:56.993Z,99.90
2019-03-16T00:38:01.561Z,99.90
2019-03-16T00:39:08.413Z,99.90
2019-03-16T00:40:13.212Z,99.90
2019-03-16T00:41:17.804Z,99.90
2019-03-16T00:42:22.451Z,99.90
2019-03-16T00:43:27.039Z,99.90
2019-03-16T00:44:31.614Z,99.90
2019-03-16T00:45:36.319Z,99.90
2019-03-16T00:46:40.997Z,99.90
2019-03-16T00:47:45.588Z,99.90
2019-03-16T00:48:50.135Z,99.90
2019-03-16T00:49:54.799Z,99.90
2019-03-16T00:50:59.372Z,99.90
2019-03-16T00:52:04.079Z,99.90
2019-03-16T00:53:08.646Z,99.90
2019-03-16T00:54:13.204Z,99.90
2019-03-16T00:55:17.788Z,99.90
2019-03-16T00:56:22.403Z,99.90
2019-03-16T00:57:27.062Z,99.90
2019-03-16T00:58:31.664Z,99.90
2019-03-16T00:59:36.287Z,99.90
2019-03-16T01:00:40.832Z,99.90
2019-03-16T01:01:45.400Z,99.90
2019-03-16T01:02:50.031Z,99.90
2019-03-16T01:03:54.634Z,99.90
2019-03-16T01:04:59.232Z,99.90
2019-03-16T01:06:03.805Z,99.90
2019-03-16T01:07:08.445Z,99.90
2019-03-16T01:08:12.987Z,99.90
2019-03-16T01:09:17.572Z,99.90
2019-03-16T01:10:22.259Z,99.90
2019-03-16T01:11:26.816Z,99.90
2019-03-16T01:12:31.419Z,99.90
2019-03-16T01:13:35.984Z,99.90
2019-03-16T01:14:40.956Z,99.90
2019-03-16T01:15:45.623Z,99.90
2019-03-16T01:16:50.215Z,99.90
2019-03-16T01:17:54.838Z,99.90
2019-03-16T01:18:59.380Z,99.90
2019-03-16T01:20:04.235Z,99.90
2019-03-16T01:21:08.779Z,99.90
2019-03-16T01:22:13.315Z,99.90
2019-03-16T01:23:18.007Z,99.90
2019-03-16T01:24:22.601Z,99.90
2019-03-16T01:25:27.187Z,99.90
2019-03-16T01:26:31.838Z,99.90
2019-03-16T01:27:36.422Z,99.90
2019-03-16T01:28:41.016Z,99.90
2019-03-16T01:29:45.639Z,99.90
2019-03-16T01:30:50.290Z,99.90
2019-03-16T01:31:54.864Z,99.90
2019-03-16T01:32:59.494Z,99.90
2019-03-16T01:34:04.307Z,99.90
2019-03-16T01:35:08.914Z,99.90
2019-03-16T01:36:13.504Z,99.90
2019-03-16T01:37:18.128Z,99.90
2019-03-16T01:38:22.753Z,99.90
2019-03-16T01:39:27.389Z,99.90
2019-03-16T01:40:32.016Z,99.90
2019-03-16T01:41:36.591Z,99.90
2019-03-16T01:42:41.206Z,99.90
2019-03-16T01:43:45.764Z,99.90
2019-03-16T01:44:50.380Z,99.90
2019-03-16T01:45:54.967Z,99.90
2019-03-16T01:46:59.909Z,99.90
2019-03-16T01:48:04.479Z,99.90
2019-03-16T01:49:09.144Z,99.90
2019-03-16T01:50:14.499Z,99.90
2019-03-16T01:51:19.105Z,99.90
2019-03-16T01:52:23.751Z,99.90
2019-03-16T01:53:28.320Z,99.90
2019-03-16T01:54:32.899Z,99.90
2019-03-16T01:55:37.439Z,99.90
2019-03-16T01:56:41.980Z,99.90
2019-03-16T01:57:47.517Z,99.90
2019-03-16T01:58:52.143Z,99.90
2019-03-16T01:59:56.730Z,99.90
2019-03-16T02:01:01.485Z,99.90
2019-03-16T02:02:06.117Z,99.90
2019-03-16T02:03:10.668Z,99.90
2019-03-16T02:04:15.266Z,99.90
2019-03-16T02:05:19.974Z,99.90
2019-03-16T02:06:24.560Z,99.90
2019-03-16T02:07:29.127Z,99.90
2019-03-16T02:08:33.681Z,99.90
2019-03-16T02:09:38.262Z,99.90
2019-03-16T02:10:42.855Z,99.90
2019-03-16T02:11:47.665Z,99.90
2019-03-16T02:12:54.045Z,99.90
2019-03-16T02:13:59.809Z,99.90
2019-03-16T02:15:04.451Z,99.90
2019-03-16T02:16:11.220Z,99.90
2019-03-16T02:17:15.391Z,99.90
2019-03-16T02:18:19.997Z,99.90
2019-03-16T02:19:24.611Z,99.90
2019-03-16T02:20:29.226Z,99.90
2019-03-16T02:21:33.799Z,99.90
2019-03-16T02:22:38.406Z,99.90
2019-03-16T02:23:42.981Z,99.90
2019-03-16T02:24:47.585Z,99.90
2019-03-16T02:26:11.414Z,99.90
2019-03-16T02:27:15.968Z,99.90
2019-03-16T02:28:20.520Z,99.90
2019-03-16T02:29:25.106Z,99.90
2019-03-16T02:30:29.657Z,99.90
2019-03-16T02:31:34.231Z,99.90
2019-03-16T02:32:38.791Z,99.90
2019-03-16T02:33:43.410Z,99.90
2019-03-16T02:34:48.031Z,99.90
2019-03-16T02:35:52.604Z,99.90
2019-03-16T02:36:57.256Z,99.90
2019-03-16T02:38:02.901Z,99.90
2019-03-16T02:39:07.745Z,99.90
2019-03-16T02:40:12.396Z,99.90
2019-03-16T02:41:16.967Z,99.90
2019-03-16T02:42:21.524Z,99.90
2019-03-16T02:43:26.114Z,99.90
2019-03-16T02:44:30.763Z,99.90
2019-03-16T02:45:35.344Z,99.90
2019-03-16T02:46:39.920Z,99.90
2019-03-16T02:47:44.490Z,99.90
2019-03-16T02:48:49.196Z,99.90
2019-03-16T02:49:53.754Z,99.90
2019-03-16T02:50:58.343Z,99.90
2019-03-16T02:52:02.940Z,99.90
2019-03-16T02:53:07.573Z,99.90
2019-03-16T02:54:12.132Z,99.90
2019-03-16T02:55:16.776Z,99.90
2019-03-16T02:56:21.367Z,99.90
2019-03-16T02:57:25.920Z,99.90
2019-03-16T02:58:30.530Z,99.90
2019-03-16T02:59:35.102Z,99.90
2019-03-16T03:00:39.671Z,99.90
2019-03-16T03:01:44.280Z,99.90
2019-03-16T03:02:48.904Z,99.90
2019-03-16T03:03:53.602Z,99.90
2019-03-16T03:04:58.300Z,99.90
2019-03-16T03:06:02.868Z,99.90
2019-03-16T03:07:07.527Z,99.90
2019-03-16T03:08:12.122Z,99.90
2019-03-16T03:09:16.692Z,99.90
2019-03-16T03:10:21.241Z,99.90
2019-03-16T03:11:25.808Z,99.90
2019-03-16T03:12:30.391Z,99.90
2019-03-16T03:13:34.977Z,99.90
2019-03-16T03:14:39.560Z,99.90
2019-03-16T03:15:45.131Z,99.90
2019-03-16T03:16:49.678Z,99.90
2019-03-16T03:17:54.340Z,99.90
2019-03-16T03:18:58.884Z,99.90
2019-03-16T03:20:03.776Z,99.90
2019-03-16T03:21:08.429Z,99.90
2019-03-16T03:22:12.987Z,99.90
2019-03-16T03:23:17.634Z,99.90
2019-03-16T03:24:22.229Z,99.90
2019-03-16T03:25:32.915Z,99.90
2019-03-16T03:26:37.481Z,99.90
2019-03-16T03:27:42.053Z,99.90
2019-03-16T03:28:46.626Z,99.90
2019-03-16T03:29:51.190Z,99.90
2019-03-16T03:30:55.970Z,99.90
2019-03-16T03:32:00.567Z,99.90
2019-03-16T03:33:05.404Z,99.90
2019-03-16T03:34:10.093Z,99.90
2019-03-16T03:35:14.761Z,99.90
2019-03-16T03:36:19.317Z,99.90
2019-03-16T03:37:23.957Z,99.90
2019-03-16T03:38:28.643Z,99.90
2019-03-16T03:39:33.285Z,99.90
2019-03-16T03:40:37.881Z,99.90
2019-03-16T03:41:42.439Z,99.90
2019-03-16T03:42:47.008Z,99.90
2019-03-16T03:43:51.604Z,99.90
2019-03-16T03:44:56.215Z,99.90
2019-03-16T03:46:00.794Z,99.90
2019-03-16T03:47:05.363Z,99.90
2019-03-16T03:48:09.970Z,99.90
2019-03-16T03:49:14.513Z,99.90
2019-03-16T03:50:19.161Z,99.90
2019-03-16T03:51:23.754Z,99.90
2019-03-16T03:52:28.346Z,99.90
2019-03-16T03:53:33.009Z,99.90
2019-03-16T03:54:37.638Z,99.90
2019-03-16T03:55:42.288Z,99.90
2019-03-16T03:56:46.854Z,99.90
2019-03-16T03:57:51.514Z,99.90
2019-03-16T03:58:56.220Z,99.90
2019-03-16T04:00:01.806Z,99.90
2019-03-16T04:01:06.509Z,99.90
2019-03-16T04:02:11.185Z,99.90
2019-03-16T04:03:15.757Z,99.90
2019-03-16T04:04:20.354Z,99.90
2019-03-16T04:05:25.027Z,99.90
2019-03-16T04:06:29.657Z,99.90
2019-03-16T04:07:34.333Z,99.90
2019-03-16T04:08:38.880Z,99.90
2019-03-16T04:09:44.515Z,99.90
2019-03-16T04:10:49.128Z,99.90
2019-03-16T04:11:53.696Z,99.90
2019-03-16T04:12:58.412Z,99.90
2019-03-16T04:14:02.997Z,99.90
2019-03-16T04:15:07.728Z,99.90
2019-03-16T04:16:12.270Z,99.90
2019-03-16T04:17:16.860Z,99.90
2019-03-16T04:18:21.448Z,99.90
2019-03-16T04:19:26.087Z,99.90
2019-03-16T04:20:30.697Z,99.90
2019-03-16T04:21:35.317Z,99.90
2019-03-16T04:22:39.891Z,99.90
2019-03-16T04:23:44.655Z,99.90
2019-03-16T04:24:49.216Z,99.90
2019-03-16T04:25:54.009Z,99.90
2019-03-16T04:27:14.571Z,99.90
2019-03-16T04:28:04.869Z,99.90
2019-03-16T04:29:09.502Z,99.90
2019-03-16T04:30:14.271Z,99.90
2019-03-16T04:31:18.856Z,99.90
2019-03-16T04:32:23.421Z,99.90
2019-03-16T04:33:27.967Z,99.90
2019-03-16T04:34:32.545Z,99.90
2019-03-16T04:35:37.154Z,99.90
2019-03-16T04:36:41.748Z,99.90
2019-03-16T04:37:46.477Z,99.90
2019-03-16T04:38:51.054Z,99.90
2019-03-16T04:39:55.619Z,99.90
2019-03-16T04:41:00.207Z,99.90
2019-03-16T04:42:04.868Z,99.90
2019-03-16T04:43:09.458Z,99.90
2019-03-16T04:44:14.097Z,99.90
2019-03-16T04:45:18.666Z,99.90
2019-03-16T04:46:23.242Z,99.90
2019-03-16T04:47:27.793Z,99.90
2019-03-16T04:48:32.349Z,99.90
2019-03-16T04:49:36.997Z,99.90
2019-03-16T04:50:41.608Z,99.90
2019-03-16T04:51:46.185Z,99.90
2019-03-16T04:52:51.233Z,99.90
2019-03-16T04:53:55.980Z,99.90
2019-03-16T04:55:00.544Z,99.90
2019-03-16T04:56:05.132Z,99.90
2019-03-16T04:57:09.763Z,99.90
2019-03-16T04:58:14.379Z,99.90
2019-03-16T04:59:18.972Z,99.90
2019-03-16T05:00:23.558Z,99.90
2019-03-16T05:01:28.151Z,99.90
2019-03-16T05:02:32.756Z,99.90
2019-03-16T05:03:37.293Z,99.90
2019-03-16T05:04:42.996Z,99.90
2019-03-16T05:05:47.823Z,99.90
2019-03-16T05:06:52.365Z,99.90
2019-03-16T05:07:56.940Z,99.90
2019-03-16T05:09:01.477Z,99.90
2019-03-16T05:10:08.188Z,99.90
2019-03-16T05:11:12.757Z,99.90
2019-03-16T05:12:17.343Z,99.90
2019-03-16T05:13:21.966Z,99.90
2019-03-16T05:14:26.528Z,99.90
2019-03-16T05:15:31.085Z,99.90
2019-03-16T05:16:35.817Z,99.90
2019-03-16T05:17:40.494Z,99.90
2019-03-16T05:18:45.176Z,99.90
2019-03-16T05:19:49.803Z,99.90
2019-03-16T05:20:54.477Z,99.90
2019-03-16T05:21:59.156Z,99.90
2019-03-16T05:23:03.957Z,99.90
2019-03-16T05:24:08.505Z,99.90
2019-03-16T05:25:13.077Z,99.90
2019-03-16T05:26:17.708Z,99.90
2019-03-16T05:27:22.495Z,99.90
2019-03-16T05:28:27.157Z,99.90
2019-03-16T05:29:32.167Z,99.90
2019-03-16T05:30:37.046Z,99.90
2019-03-16T05:31:41.906Z,99.90
2019-03-16T05:32:46.743Z,99.90
2019-03-16T05:33:51.903Z,99.90
2019-03-16T05:34:57.025Z,99.90
2019-03-16T05:36:01.726Z,99.90
2019-03-16T05:37:06.355Z,99.90
2019-03-16T05:38:11.732Z,99.90
2019-03-16T05:39:17.959Z,99.90
2019-03-16T05:40:22.552Z,99.90
2019-03-16T05:41:27.203Z,99.90
2019-03-16T05:42:31.823Z,99.90
2019-03-16T05:43:36.467Z,99.90
2019-03-16T05:44:41.063Z,99.90
2019-03-16T05:45:46.155Z,99.90
2019-03-16T05:46:51.612Z,99.90
2019-03-16T05:47:56.179Z,99.90
2019-03-16T05:49:00.731Z,99.90
2019-03-16T05:50:05.691Z,99.90
2019-03-16T05:51:10.255Z,99.90
2019-03-16T05:52:14.807Z,99.90
2019-03-16T05:53:19.383Z,99.90
2019-03-16T05:54:23.995Z,99.90
2019-03-16T05:55:28.691Z,99.90
2019-03-16T05:56:33.300Z,99.90
2019-03-16T05:57:37.935Z,99.90
2019-03-16T05:58:43.165Z,99.90
2019-03-16T05:59:47.714Z,99.90
2019-03-16T06:00:52.337Z,99.90
2019-03-16T06:01:58.893Z,99.90
2019-03-16T06:03:03.780Z,99.90
2019-03-16T06:04:08.401Z,99.90
2019-03-16T06:05:13.078Z,99.90
2019-03-16T06:06:18.155Z,99.90
2019-03-16T06:07:23.009Z,99.90
2019-03-16T06:08:27.724Z,99.90
2019-03-16T06:09:32.905Z,99.90
2019-03-16T06:10:37.486Z,99.90
2019-03-16T06:11:42.142Z,99.90
2019-03-16T06:12:46.989Z,99.90
2019-03-16T06:13:51.740Z,99.90
2019-03-16T06:14:56.646Z,99.90
2019-03-16T06:16:01.756Z,99.90
2019-03-16T06:17:06.689Z,99.90
2019-03-16T06:18:13.213Z,99.90
2019-03-16T06:19:18.815Z,99.90
2019-03-16T06:20:24.070Z,99.90
2019-03-16T06:21:29.242Z,99.90
2019-03-16T06:22:34.741Z,99.90
2019-03-16T06:23:40.431Z,99.90
2019-03-16T06:24:45.796Z,99.90
2019-03-16T06:25:52.170Z,99.90
2019-03-16T06:26:57.853Z,99.90
2019-03-16T06:28:06.681Z,99.90
2019-03-16T06:29:15.222Z,99.90
2019-03-16T06:30:21.104Z,99.90
2019-03-16T06:31:27.669Z,99.90
2019-03-16T06:32:35.976Z,99.90
2019-03-16T06:33:41.533Z,99.90
2019-03-16T06:34:46.097Z,99.90
2019-03-16T06:35:51.272Z,99.90
2019-03-16T06:36:56.356Z,99.90
2019-03-16T06:38:02.000Z,99.90
2019-03-16T06:39:07.944Z,99.90
2019-03-16T06:40:13.013Z,99.90
2019-03-16T06:41:19.384Z,99.90
2019-03-16T06:42:24.104Z,99.90
2019-03-16T06:43:28.687Z,99.90
2019-03-16T06:44:33.434Z,99.90
2019-03-16T06:45:38.927Z,99.90
2019-03-16T06:46:43.492Z,99.90
2019-03-16T06:47:54.763Z,99.90
2019-03-16T06:49:01.672Z,99.90
2019-03-16T06:50:07.295Z,99.90
2019-03-16T06:51:12.020Z,99.90
2019-03-16T06:52:17.773Z,99.90
2019-03-16T06:53:23.331Z,99.90
2019-03-16T06:54:29.343Z,99.90
2019-03-16T06:55:34.273Z,99.90
2019-03-16T06:56:38.915Z,99.90
2019-03-16T06:57:43.788Z,99.90
2019-03-16T06:58:49.430Z,99.90
2019-03-16T06:59:56.378Z,99.90
2019-03-16T07:01:01.365Z,99.90
2019-03-16T07:02:10.428Z,99.90
2019-03-16T07:03:15.118Z,99.90
2019-03-16T07:04:20.077Z,99.90
2019-03-16T07:05:37.303Z,99.90
2019-03-16T07:06:31.679Z,99.90
2019-03-16T07:07:38.102Z,99.90
2019-03-16T07:08:42.656Z,99.90
2019-03-16T07:09:47.843Z,99.90
2019-03-16T07:10:53.252Z,99.90
2019-03-16T07:12:01.192Z,99.90
2019-03-16T07:13:06.770Z,99.90
2019-03-16T07:14:12.365Z,99.90
2019-03-16T07:15:17.921Z,99.90
2019-03-16T07:16:22.620Z,99.90
2019-03-16T07:17:27.673Z,99.90
2019-03-16T07:18:33.443Z,99.90
2019-03-16T07:19:38.160Z,99.90
2019-03-16T07:20:43.057Z,99.90
2019-03-16T07:21:51.212Z,99.90
2019-03-16T07:22:57.225Z,99.90
2019-03-16T07:24:02.700Z,99.90
2019-03-16T07:25:10.878Z,99.90
2019-03-16T07:26:17.768Z,99.90
2019-03-16T07:27:26.380Z,99.90
2019-03-16T07:28:31.591Z,99.90
2019-03-16T07:29:38.066Z,99.90
2019-03-16T07:30:43.222Z,99.90
2019-03-16T07:31:48.039Z,99.90
2019-03-16T07:32:53.379Z,99.90
2019-03-16T07:33:58.049Z,99.90
2019-03-16T07:35:02.601Z,99.90
2019-03-16T07:36:07.282Z,99.90
2019-03-16T07:37:12.814Z,99.90
2019-03-16T07:38:17.403Z,99.90
2019-03-16T07:39:22.031Z,99.90
2019-03-16T07:40:26.614Z,99.90
2019-03-16T07:41:31.259Z,99.90
2019-03-16T07:42:36.776Z,99.90
2019-03-16T07:43:41.839Z,99.90
2019-03-16T07:44:46.863Z,99.90
2019-03-16T07:45:51.980Z,99.90
2019-03-16T07:46:56.606Z,99.90
2019-03-16T07:48:01.268Z,99.90
2019-03-16T07:49:05.850Z,99.90
2019-03-16T07:50:10.461Z,99.90
2019-03-16T07:51:15.057Z,99.90
2019-03-16T07:52:19.640Z,99.90
2019-03-16T07:53:24.373Z,99.90
2019-03-16T07:54:31.220Z,99.90
2019-03-16T07:55:35.460Z,99.90
2019-03-16T07:56:40.511Z,99.90
2019-03-16T07:57:45.128Z,99.90
2019-03-16T07:58:49.722Z,99.90
2019-03-16T07:59:54.312Z,99.90
2019-03-16T08:00:59.164Z,99.90
2019-03-16T08:02:04.377Z,99.90
2019-03-16T08:03:09.036Z,99.90
2019-03-16T08:04:13.604Z,99.90
2019-03-16T08:05:19.377Z,99.90
2019-03-16T08:06:24.243Z,99.90
2019-03-16T08:07:29.230Z,99.90
2019-03-16T08:08:33.888Z,99.90
2019-03-16T08:09:38.436Z,99.90
2019-03-16T08:10:43.952Z,99.90
2019-03-16T08:11:50.254Z,99.90
2019-03-16T08:12:54.931Z,99.90
2019-03-16T08:14:00.200Z,99.90
2019-03-16T08:15:05.371Z,99.90
2019-03-16T08:16:10.002Z,99.90
2019-03-16T08:17:15.782Z,99.90
2019-03-16T08:18:20.345Z,99.90
2019-03-16T08:19:24.911Z,99.90
2019-03-16T08:20:31.430Z,99.90
2019-03-16T08:21:35.751Z,99.90
2019-03-16T08:22:40.291Z,99.90
2019-03-16T08:23:44.859Z,99.90
2019-03-16T08:24:49.434Z,99.90
2019-03-16T08:25:54.088Z,99.90
2019-03-16T08:27:02.050Z,99.90
2019-03-16T08:28:06.658Z,99.90
2019-03-16T08:29:11.271Z,99.90
2019-03-16T08:30:16.112Z,99.90
2019-03-16T08:31:20.702Z,99.90
2019-03-16T08:32:25.583Z,99.90
2019-03-16T08:33:30.272Z,99.90
2019-03-16T08:34:34.875Z,99.90
2019-03-16T08:35:39.504Z,99.90
2019-03-16T08:36:45.052Z,99.90
2019-03-16T08:37:49.617Z,99.90
2019-03-16T08:38:54.221Z,99.90
2019-03-16T08:39:58.827Z,99.90
2019-03-16T08:41:03.425Z,99.90
2019-03-16T08:42:07.956Z,99.90
2019-03-16T08:43:12.499Z,99.90
2019-03-16T08:44:17.192Z,99.90
2019-03-16T08:45:21.836Z,99.90
2019-03-16T08:46:26.382Z,99.90
2019-03-16T08:47:31.646Z,99.90
2019-03-16T08:48:37.262Z,99.90
2019-03-16T08:49:41.824Z,99.90
2019-03-16T08:50:46.424Z,99.90
2019-03-16T08:51:50.955Z,99.90
2019-03-16T08:52:55.595Z,99.90
2019-03-16T08:54:00.221Z,99.90
2019-03-16T08:55:05.602Z,99.90
2019-03-16T08:56:10.238Z,99.90
2019-03-16T08:57:14.792Z,99.90
2019-03-16T08:58:19.353Z,99.90
2019-03-16T08:59:24.552Z,99.90
2019-03-16T09:00:29.295Z,99.90
2019-03-16T09:01:33.860Z,99.90
2019-03-16T09:02:38.788Z,99.90
2019-03-16T09:03:44.106Z,99.90
2019-03-16T09:04:48.840Z,99.90
2019-03-16T09:05:53.507Z,99.90
2019-03-16T09:06:58.066Z,99.90
2019-03-16T09:08:02.653Z,99.90
2019-03-16T09:09:07.897Z,99.90
2019-03-16T09:10:12.791Z,99.90
2019-03-16T09:11:17.399Z,99.90
2019-03-16T09:12:22.074Z,99.90
2019-03-16T09:13:26.676Z,99.90
2019-03-16T09:14:31.211Z,99.90
2019-03-16T09:15:35.878Z,99.90
2019-03-16T09:16:40.465Z,99.90
2019-03-16T09:17:45.109Z,99.90
2019-03-16T09:18:50.015Z,99.90
2019-03-16T09:19:54.588Z,99.90
2019-03-16T09:20:59.171Z,99.90
2019-03-16T09:22:03.755Z,99.90
2019-03-16T09:23:09.311Z,99.90
2019-03-16T09:24:13.882Z,99.90
2019-03-16T09:25:18.447Z,99.90
2019-03-16T09:26:23.012Z,99.90
2019-03-16T09:27:31.402Z,99.90
2019-03-16T09:28:34.034Z,99.90
2019-03-16T09:29:38.607Z,99.90
2019-03-16T09:30:43.151Z,99.90
2019-03-16T09:31:47.706Z,99.90
2019-03-16T09:32:52.280Z,99.90
2019-03-16T09:33:56.862Z,99.90
2019-03-16T09:35:01.412Z,99.90
2019-03-16T09:36:06.997Z,99.90
2019-03-16T09:37:11.551Z,99.90
2019-03-16T09:38:16.134Z,99.90
2019-03-16T09:39:20.719Z,99.60
2019-03-16T09:40:25.374Z,99.90
2019-03-16T09:41:29.973Z,99.70
2019-03-16T09:42:34.571Z,99.70
2019-03-16T09:43:39.143Z,99.30
2019-03-16T09:44:43.818Z,99.30
2019-03-16T09:45:48.459Z,99.20
2019-03-16T09:46:53.124Z,99.30
2019-03-16T09:47:57.701Z,99.50
2019-03-16T09:49:02.277Z,99.00
2019-03-16T09:50:07.657Z,99.00
2019-03-16T09:51:12.307Z,99.20
2019-03-16T09:52:16.912Z,99.20
2019-03-16T09:53:21.582Z,99.50
2019-03-16T09:54:26.169Z,99.80
2019-03-16T09:55:30.813Z,99.30
2019-03-16T09:56:35.400Z,98.90
2019-03-16T09:57:39.965Z,99.00
2019-03-16T09:58:44.668Z,99.00
2019-03-16T09:59:49.443Z,99.40
2019-03-16T10:00:54.101Z,99.30
2019-03-16T10:01:58.733Z,98.80
2019-03-16T10:03:03.316Z,98.50
2019-03-16T10:04:08.049Z,98.70
2019-03-16T10:05:12.904Z,98.70
2019-03-16T10:06:17.501Z,99.40
2019-03-16T10:07:22.086Z,99.20
2019-03-16T10:08:26.672Z,99.20
2019-03-16T10:09:31.320Z,99.60
2019-03-16T10:10:36.038Z,99.00
2019-03-16T10:11:41.167Z,99.00
2019-03-16T10:12:45.820Z,99.00
2019-03-16T10:13:50.390Z,98.70
2019-03-16T10:14:55.013Z,98.70
2019-03-16T10:15:59.583Z,99.00
2019-03-16T10:17:04.283Z,99.00
2019-03-16T10:18:08.900Z,99.10
2019-03-16T10:19:13.455Z,98.60
2019-03-16T10:20:18.117Z,98.40
2019-03-16T10:21:22.738Z,98.80
2019-03-16T10:22:27.441Z,97.70
2019-03-16T10:23:32.007Z,97.90
2019-03-16T10:24:36.677Z,98.00
2019-03-16T10:25:41.261Z,97.90
2019-03-16T10:26:45.977Z,98.20
2019-03-16T10:27:50.579Z,98.30
2019-03-16T10:28:55.167Z,98.50
2019-03-16T10:29:59.936Z,98.60
2019-03-16T10:31:09.869Z,98.60
2019-03-16T10:32:14.571Z,98.30
2019-03-16T10:33:19.273Z,98.40
2019-03-16T10:34:23.900Z,98.00
2019-03-16T10:35:28.560Z,98.40
2019-03-16T10:36:33.190Z,98.10
2019-03-16T10:37:37.935Z,97.90
2019-03-16T10:38:42.516Z,98.00
2019-03-16T10:39:47.129Z,96.90
2019-03-16T10:40:51.779Z,96.70
2019-03-16T10:41:56.619Z,96.80
2019-03-16T10:43:01.278Z,96.50
2019-03-16T10:44:05.957Z,96.60
2019-03-16T10:45:10.962Z,96.60
2019-03-16T10:46:16.693Z,96.60
2019-03-16T10:47:21.288Z,96.20
2019-03-16T10:48:25.972Z,96.30
2019-03-16T10:49:30.700Z,96.40
2019-03-16T10:50:35.336Z,96.90
2019-03-16T10:51:39.947Z,96.90
2019-03-16T10:52:44.585Z,96.90
2019-03-16T10:53:50.310Z,96.70
2019-03-16T10:54:54.900Z,96.80
2019-03-16T10:55:59.664Z,96.60
2019-03-16T10:57:04.568Z,96.60
2019-03-16T10:58:09.339Z,97.00
2019-03-16T10:59:13.929Z,97.10
2019-03-16T11:00:18.579Z,96.90
2019-03-16T11:01:23.233Z,96.50
2019-03-16T11:02:27.822Z,96.10
2019-03-16T11:03:32.431Z,96.00
2019-03-16T11:04:37.018Z,96.30
2019-03-16T11:05:41.607Z,96.20
2019-03-16T11:06:46.225Z,96.20
2019-03-16T11:07:50.976Z,96.40
2019-03-16T11:08:55.547Z,95.90
2019-03-16T11:10:00.163Z,96.50
2019-03-16T11:11:05.143Z,96.20
2019-03-16T11:12:09.963Z,96.30
2019-03-16T11:13:14.609Z,96.60
2019-03-16T11:14:19.275Z,96.70
2019-03-16T11:15:23.944Z,96.80
2019-03-16T11:16:28.654Z,97.10
2019-03-16T11:17:33.357Z,97.00
2019-03-16T11:18:38.037Z,96.40
2019-03-16T11:19:42.683Z,96.10
2019-03-16T11:20:47.378Z,95.90
2019-03-16T11:21:52.044Z,96.20
2019-03-16T11:22:57.019Z,96.10
2019-03-16T11:24:01.659Z,96.20
2019-03-16T11:25:06.468Z,96.10
2019-03-16T11:26:11.141Z,96.20
2019-03-16T11:27:17.231Z,96.30
2019-03-16T11:28:23.603Z,96.40
2019-03-16T11:29:28.279Z,96.30
2019-03-16T11:30:32.876Z,96.30
2019-03-16T11:31:37.507Z,96.30
2019-03-16T11:32:42.239Z,96.10
2019-03-16T11:33:48.535Z,96.10
2019-03-16T11:34:54.223Z,96.30
2019-03-16T11:35:58.893Z,96.50
2019-03-16T11:37:03.614Z,96.30
2019-03-16T11:38:08.160Z,96.00
2019-03-16T11:39:13.028Z,96.00
2019-03-16T11:40:17.773Z,96.20
2019-03-16T11:41:22.375Z,96.50
2019-03-16T11:42:27.088Z,96.80
2019-03-16T11:43:31.718Z,97.10
2019-03-16T11:44:36.345Z,97.40
2019-03-16T11:45:41.001Z,97.90
2019-03-16T11:46:45.695Z,98.40
2019-03-16T11:47:50.309Z,98.30
2019-03-16T11:48:55.970Z,98.10
2019-03-16T11:50:00.625Z,98.50
2019-03-16T11:51:05.324Z,98.60
2019-03-16T11:52:09.941Z,99.00
2019-03-16T11:53:15.595Z,99.00
2019-03-16T11:54:21.307Z,99.30
2019-03-16T11:55:25.967Z,99.30
2019-03-16T11:56:30.540Z,99.90
2019-03-16T11:57:35.261Z,99.90
2019-03-16T11:58:39.878Z,99.90
2019-03-16T11:59:44.500Z,99.90
2019-03-16T12:00:49.202Z,99.90
2019-03-16T12:02:04.865Z,99.90
2019-03-16T12:03:00.116Z,99.90
2019-03-16T12:04:06.409Z,99.90
2019-03-16T12:05:11.386Z,99.90
2019-03-16T12:06:15.987Z,99.90
2019-03-16T12:07:20.582Z,99.90
2019-03-16T12:08:25.170Z,99.90
2019-03-16T12:09:29.757Z,99.90
2019-03-16T12:10:34.316Z,99.90
2019-03-16T12:11:38.871Z,99.90
2019-03-16T12:12:43.424Z,99.90
2019-03-16T12:13:48.012Z,99.90
2019-03-16T12:14:52.556Z,99.90
2019-03-16T12:15:57.199Z,99.90
2019-03-16T12:17:01.770Z,99.90
2019-03-16T12:18:06.352Z,99.90
2019-03-16T12:19:10.959Z,99.90
2019-03-16T12:20:18.004Z,99.90
2019-03-16T12:21:21.893Z,99.90
2019-03-16T12:22:26.477Z,99.90
2019-03-16T12:23:31.090Z,99.90
2019-03-16T12:24:35.932Z,99.90
2019-03-16T12:25:40.495Z,99.90
2019-03-16T12:26:45.150Z,99.90
2019-03-16T12:27:49.716Z,99.90
2019-03-16T12:28:54.372Z,99.90
2019-03-16T12:29:59.402Z,99.90
2019-03-16T12:31:04.306Z,99.90
2019-03-16T12:32:09.002Z,99.90
2019-03-16T12:33:14.833Z,99.90
2019-03-16T12:34:19.536Z,99.90
2019-03-16T12:35:24.147Z,99.90
2019-03-16T12:36:28.704Z,99.90
2019-03-16T12:37:33.324Z,99.90
2019-03-16T12:38:37.989Z,99.90
2019-03-16T12:39:42.543Z,99.90
2019-03-16T12:40:47.224Z,99.90
2019-03-16T12:41:51.843Z,99.90
2019-03-16T12:42:56.440Z,99.90
2019-03-16T12:44:00.972Z,99.90
2019-03-16T12:45:07.820Z,99.90
2019-03-16T12:46:12.470Z,99.90
2019-03-16T12:47:17.096Z,99.90
2019-03-16T12:48:21.672Z,99.90
2019-03-16T12:49:26.424Z,99.90
2019-03-16T12:50:31.039Z,99.90
2019-03-16T12:51:35.600Z,99.90
2019-03-16T12:52:40.372Z,99.90
2019-03-16T12:53:44.926Z,99.90
2019-03-16T12:54:49.500Z,99.90
2019-03-16T12:55:54.119Z,99.90
2019-03-16T12:56:58.690Z,99.90
2019-03-16T12:58:03.299Z,99.90
2019-03-16T12:59:10.696Z,99.90
2019-03-16T13:00:14.314Z,99.90
2019-03-16T13:01:18.976Z,99.90
2019-03-16T13:02:23.606Z,99.90
2019-03-16T13:03:28.481Z,99.90
2019-03-16T13:04:33.034Z,99.90
2019-03-16T13:05:37.597Z,99.90
2019-03-16T13:06:42.171Z,99.90
2019-03-16T13:07:46.765Z,99.90
2019-03-16T13:08:51.568Z,99.90
2019-03-16T13:09:56.247Z,99.90
2019-03-16T13:11:00.799Z,99.90
2019-03-16T13:12:05.377Z,99.90
2019-03-16T13:13:10.011Z,99.90
2019-03-16T13:14:14.543Z,99.90
2019-03-16T13:15:19.219Z,99.90
2019-03-16T13:16:23.796Z,99.90
2019-03-16T13:17:28.402Z,99.90
2019-03-16T13:18:32.963Z,99.90
2019-03-16T13:19:37.576Z,99.90
2019-03-16T13:20:42.207Z,99.90
2019-03-16T13:21:46.745Z,99.90
2019-03-16T13:22:51.293Z,99.90
2019-03-16T13:23:55.836Z,99.90
2019-03-16T13:25:00.426Z,99.90
2019-03-16T13:26:04.966Z,99.90
2019-03-16T13:27:09.533Z,99.90
2019-03-16T13:28:14.079Z,99.90
2019-03-16T13:29:18.761Z,99.90
2019-03-16T13:30:23.351Z,99.90
2019-03-16T13:31:27.948Z,99.90
2019-03-16T13:32:32.570Z,99.90
2019-03-16T13:33:37.200Z,99.90
2019-03-16T13:34:41.769Z,99.90
2019-03-16T13:35:46.373Z,99.90
2019-03-16T13:36:50.923Z,99.90
2019-03-16T13:37:55.465Z,99.90
2019-03-16T13:39:00.153Z,99.90
2019-03-16T13:40:05.432Z,99.90
2019-03-16T13:41:10.116Z,99.90
2019-03-16T13:42:14.671Z,99.90
2019-03-16T13:43:19.284Z,99.90
2019-03-16T13:44:23.835Z,99.90
2019-03-16T13:45:28.422Z,99.90
2019-03-16T13:46:32.986Z,99.90
2019-03-16T13:47:38.110Z,99.90
2019-03-16T13:48:42.671Z,99.90
2019-03-16T13:49:47.328Z,99.90
2019-03-16T13:50:51.964Z,99.90
2019-03-16T13:51:56.556Z,99.90
2019-03-16T13:53:01.467Z,99.90
2019-03-16T13:54:06.048Z,99.90
2019-03-16T13:55:11.075Z,99.90